Aurora, North Carolina
Current Conditions -  °F | °C
As of 4:54 AM on Thursday 23 Oct 2014 (Local Time) from KEWN Reporting Station
Clear Clear  
Wind Chill: 52°   Ceiling: Unl
Heat Index: 52°   Visibility: 10mi
Dew Point: 44°   Wind: 8mph
Humidity: 74%   Direction: 290°WNW
Pressure: 29.98"   Gusts: NA
Location:  35.31°N, 76.79°W
Report Text: KEWN 230854Z AUTO 29007KT 10SM CLR 11/07 A2998 RMK AO2 SLP151 T01110067 55003
Loading
Personal Weather Stations






























Interactive Weather Map
Tropical Storm Tracking
New forecast layout! Learn more

10-Day Weather Forecast

Advertisements
Track Severe Weather on mobile